sensor_id;sensor_type;location;lat;lon;timestamp;temperature;humidity
16384;DHT22;8301;51.440;6.610;2023-03-14T00:00:20;11.10;37.00
16384;DHT22;8301;51.440;6.610;2023-03-14T00:02:51;11.10;20.10
16384;DHT22;8301;51.440;6.610;2023-03-14T00:05:17;11.20;1.00
16384;DHT22;8301;51.440;6.610;2023-03-14T00:07:44;11.30;1.00
16384;DHT22;8301;51.440;6.610;2023-03-14T00:10:12;11.30;1.00
16384;DHT22;8301;51.440;6.610;2023-03-14T00:12:39;11.30;1.00
16384;DHT22;8301;51.440;6.610;2023-03-14T00:15:07;11.30;1.00
16384;DHT22;8301;51.440;6.610;2023-03-14T00:17:34;11.30;1.00
16384;DHT22;8301;51.440;6.610;2023-03-14T00:20:03;11.40;36.20
16384;DHT22;8301;51.440;6.610;2023-03-14T00:22:31;11.30;99.90
16384;DHT22;8301;51.440;6.610;2023-03-14T00:24:58;11.30;70.70
16384;DHT22;8301;51.440;6.610;2023-03-14T00:27:25;11.30;99.90
16384;DHT22;8301;51.440;6.610;2023-03-14T00:29:52;11.20;99.90
16384;DHT22;8301;51.440;6.610;2023-03-14T00:32:19;11.10;99.90
16384;DHT22;8301;51.440;6.610;2023-03-14T00:34:46;11.00;99.90
16384;DHT22;8301;51.440;6.610;2023-03-14T00:37:13;10.90;99.90
16384;DHT22;8301;51.440;6.610;2023-03-14T00:39:39;10.80;99.90
16384;DHT22;8301;51.440;6.610;2023-03-14T00:42:06;10.70;99.90
16384;DHT22;8301;51.440;6.610;2023-03-14T00:44:33;10.70;99.90
16384;DHT22;8301;51.440;6.610;2023-03-14T00:47:00;10.70;99.90
16384;DHT22;8301;51.440;6.610;2023-03-14T00:49:27;10.60;99.90
16384;DHT22;8301;51.440;6.610;2023-03-14T00:51:53;10.50;99.90
16384;DHT22;8301;51.440;6.610;2023-03-14T00:54:20;10.40;99.90
16384;DHT22;8301;51.440;6.610;2023-03-14T00:56:48;10.30;99.90
16384;DHT22;8301;51.440;6.610;2023-03-14T00:59:15;10.30;99.90
16384;DHT22;8301;51.440;6.610;2023-03-14T01:01:43;10.30;99.90
16384;DHT22;8301;51.440;6.610;2023-03-14T01:04:10;10.30;99.90
16384;DHT22;8301;51.440;6.610;2023-03-14T01:06:37;10.20;99.90
16384;DHT22;8301;51.440;6.610;2023-03-14T01:09:04;10.20;99.90
16384;DHT22;8301;51.440;6.610;2023-03-14T01:11:32;10.20;99.90
16384;DHT22;8301;51.440;6.610;2023-03-14T01:13:59;10.20;99.90
16384;DHT22;8301;51.440;6.610;2023-03-14T01:16:27;10.20;99.90
16384;DHT22;8301;51.440;6.610;2023-03-14T01:19:01;10.20;99.90
16384;DHT22;8301;51.440;6.610;2023-03-14T01:21:31;10.20;99.90
16384;DHT22;8301;51.440;6.610;2023-03-14T01:23:59;10.10;99.90
16384;DHT22;8301;51.440;6.610;2023-03-14T01:26:33;10.10;99.90
16384;DHT22;8301;51.440;6.610;2023-03-14T01:29:00;10.00;99.90
16384;DHT22;8301;51.440;6.610;2023-03-14T01:31:27;10.00;99.90
16384;DHT22;8301;51.440;6.610;2023-03-14T01:33:55;10.00;99.90
16384;DHT22;8301;51.440;6.610;2023-03-14T01:36:24;10.00;99.90
16384;DHT22;8301;51.440;6.610;2023-03-14T01:38:51;9.90;99.90
16384;DHT22;8301;51.440;6.610;2023-03-14T01:41:20;9.80;99.90
16384;DHT22;8301;51.440;6.610;2023-03-14T01:43:48;9.80;99.90
16384;DHT22;8301;51.440;6.610;2023-03-14T01:46:19;9.80;99.90
16384;DHT22;8301;51.440;6.610;2023-03-14T01:51:27;9.60;99.90
16384;DHT22;8301;51.440;6.610;2023-03-14T01:53:54;9.60;99.90
16384;DHT22;8301;51.440;6.610;2023-03-14T01:56:22;9.60;99.90
16384;DHT22;8301;51.440;6.610;2023-03-14T01:58:49;9.60;99.90
16384;DHT22;8301;51.440;6.610;2023-03-14T02:01:19;9.60;99.90
16384;DHT22;8301;51.440;6.610;2023-03-14T02:03:50;9.60;99.90
16384;DHT22;8301;51.440;6.610;2023-03-14T02:06:15;9.70;99.90
16384;DHT22;8301;51.440;6.610;2023-03-14T02:08:44;9.70;99.90
16384;DHT22;8301;51.440;6.610;2023-03-14T02:11:12;9.80;99.90
16384;DHT22;8301;51.440;6.610;2023-03-14T02:13:42;9.80;99.90
16384;DHT22;8301;51.440;6.610;2023-03-14T02:16:09;9.80;99.90
16384;DHT22;8301;51.440;6.610;2023-03-14T02:18:37;9.80;99.90
16384;DHT22;8301;51.440;6.610;2023-03-14T02:21:09;9.80;99.90
16384;DHT22;8301;51.440;6.610;2023-03-14T02:28:46;9.80;99.90
16384;DHT22;8301;51.440;6.610;2023-03-14T02:31:14;9.80;99.90
16384;DHT22;8301;51.440;6.610;2023-03-14T02:33:41;9.80;99.90
16384;DHT22;8301;51.440;6.610;2023-03-14T02:36:09;9.80;99.90
16384;DHT22;8301;51.440;6.610;2023-03-14T02:38:41;9.70;99.90
16384;DHT22;8301;51.440;6.610;2023-03-14T02:41:05;9.70;99.90
16384;DHT22;8301;51.440;6.610;2023-03-14T02:43:32;9.80;99.90
16384;DHT22;8301;51.440;6.610;2023-03-14T02:46:07;9.80;99.90
16384;DHT22;8301;51.440;6.610;2023-03-14T02:48:37;9.80;99.90
16384;DHT22;8301;51.440;6.610;2023-03-14T02:51:04;9.80;99.90
16384;DHT22;8301;51.440;6.610;2023-03-14T02:53:32;9.80;99.90
16384;DHT22;8301;51.440;6.610;2023-03-14T02:55:59;9.80;99.90
16384;DHT22;8301;51.440;6.610;2023-03-14T02:58:26;9.80;99.90
16384;DHT22;8301;51.440;6.610;2023-03-14T03:00:53;9.80;99.90
16384;DHT22;8301;51.440;6.610;2023-03-14T03:03:20;9.80;99.90
16384;DHT22;8301;51.440;6.610;2023-03-14T03:05:48;9.80;99.90
16384;DHT22;8301;51.440;6.610;2023-03-14T03:08:16;9.80;99.90
16384;DHT22;8301;51.440;6.610;2023-03-14T03:10:44;9.70;99.90
16384;DHT22;8301;51.440;6.610;2023-03-14T03:13:14;9.80;99.90
16384;DHT22;8301;51.440;6.610;2023-03-14T03:15:41;9.80;99.90
16384;DHT22;8301;51.440;6.610;2023-03-14T03:18:08;9.80;99.90
16384;DHT22;8301;51.440;6.610;2023-03-14T03:20:35;9.80;99.90
16384;DHT22;8301;51.440;6.610;2023-03-14T03:23:03;9.80;99.90
16384;DHT22;8301;51.440;6.610;2023-03-14T03:25:31;9.80;99.90
16384;DHT22;8301;51.440;6.610;2023-03-14T03:27:58;9.80;99.90
16384;DHT22;8301;51.440;6.610;2023-03-14T03:30:25;9.90;99.90
16384;DHT22;8301;51.440;6.610;2023-03-14T03:32:56;9.90;99.90
16384;DHT22;8301;51.440;6.610;2023-03-14T03:35:24;9.90;99.90
16384;DHT22;8301;51.440;6.610;2023-03-14T03:37:53;9.90;99.90
16384;DHT22;8301;51.440;6.610;2023-03-14T03:40:22;9.90;99.90
16384;DHT22;8301;51.440;6.610;2023-03-14T03:42:52;9.90;99.90
16384;DHT22;8301;51.440;6.610;2023-03-14T03:45:19;9.90;99.90
16384;DHT22;8301;51.440;6.610;2023-03-14T03:47:45;9.80;99.90
16384;DHT22;8301;51.440;6.610;2023-03-14T03:50:13;9.70;99.90
16384;DHT22;8301;51.440;6.610;2023-03-14T03:52:40;9.70;99.90
16384;DHT22;8301;51.440;6.610;2023-03-14T03:55:07;9.70;99.90
16384;DHT22;8301;51.440;6.610;2023-03-14T03:57:34;9.70;99.90
16384;DHT22;8301;51.440;6.610;2023-03-14T04:00:01;9.80;99.90
16384;DHT22;8301;51.440;6.610;2023-03-14T04:02:28;9.80;99.90
16384;DHT22;8301;51.440;6.610;2023-03-14T04:04:55;9.80;99.90
16384;DHT22;8301;51.440;6.610;2023-03-14T04:07:22;9.80;99.90
16384;DHT22;8301;51.440;6.610;2023-03-14T04:09:51;9.80;99.90
16384;DHT22;8301;51.440;6.610;2023-03-14T04:12:19;9.80;99.90
16384;DHT22;8301;51.440;6.610;2023-03-14T04:14:46;9.80;99.90
16384;DHT22;8301;51.440;6.610;2023-03-14T04:17:13;9.80;99.90
16384;DHT22;8301;51.440;6.610;2023-03-14T04:19:40;9.70;99.90
16384;DHT22;8301;51.440;6.610;2023-03-14T04:22:08;9.70;99.90
16384;DHT22;8301;51.440;6.610;2023-03-14T04:24:37;9.50;99.90
16384;DHT22;8301;51.440;6.610;2023-03-14T04:27:04;9.40;99.90
16384;DHT22;8301;51.440;6.610;2023-03-14T04:29:31;9.30;99.90
16384;DHT22;8301;51.440;6.610;2023-03-14T04:31:58;9.20;99.90
16384;DHT22;8301;51.440;6.610;2023-03-14T04:34:34;9.20;99.90
16384;DHT22;8301;51.440;6.610;2023-03-14T04:37:01;9.20;99.90
16384;DHT22;8301;51.440;6.610;2023-03-14T04:39:28;9.10;99.90
16384;DHT22;8301;51.440;6.610;2023-03-14T04:41:54;9.00;99.90
16384;DHT22;8301;51.440;6.610;2023-03-14T04:44:21;9.00;99.90
16384;DHT22;8301;51.440;6.610;2023-03-14T04:46:48;8.90;99.90
16384;DHT22;8301;51.440;6.610;2023-03-14T04:49:15;8.80;99.90
16384;DHT22;8301;51.440;6.610;2023-03-14T04:51:42;8.80;99.90
16384;DHT22;8301;51.440;6.610;2023-03-14T04:54:08;8.70;99.90
16384;DHT22;8301;51.440;6.610;2023-03-14T04:56:39;8.70;99.90
16384;DHT22;8301;51.440;6.610;2023-03-14T04:59:12;8.70;99.90
16384;DHT22;8301;51.440;6.610;2023-03-14T05:01:39;8.70;99.90
16384;DHT22;8301;51.440;6.610;2023-03-14T05:04:10;8.60;99.90
16384;DHT22;8301;51.440;6.610;2023-03-14T05:06:36;8.60;99.90
16384;DHT22;8301;51.440;6.610;2023-03-14T05:09:05;8.50;99.90
16384;DHT22;8301;51.440;6.610;2023-03-14T05:11:34;8.50;99.90
16384;DHT22;8301;51.440;6.610;2023-03-14T05:14:05;8.50;99.90
16384;DHT22;8301;51.440;6.610;2023-03-14T05:16:31;8.40;99.90
16384;DHT22;8301;51.440;6.610;2023-03-14T05:18:58;8.40;99.90
16384;DHT22;8301;51.440;6.610;2023-03-14T05:21:27;8.40;99.90
16384;DHT22;8301;51.440;6.610;2023-03-14T05:23:54;8.40;99.90
16384;DHT22;8301;51.440;6.610;2023-03-14T05:26:21;8.30;99.90
16384;DHT22;8301;51.440;6.610;2023-03-14T05:28:49;8.30;99.90
16384;DHT22;8301;51.440;6.610;2023-03-14T05:31:16;8.30;99.90
16384;DHT22;8301;51.440;6.610;2023-03-14T05:33:43;8.30;99.90
16384;DHT22;8301;51.440;6.610;2023-03-14T05:36:10;8.30;99.90
16384;DHT22;8301;51.440;6.610;2023-03-14T05:38:36;8.40;99.90
16384;DHT22;8301;51.440;6.610;2023-03-14T05:41:03;8.40;99.90
16384;DHT22;8301;51.440;6.610;2023-03-14T05:43:30;8.40;99.90
16384;DHT22;8301;51.440;6.610;2023-03-14T05:45:57;8.40;99.90
16384;DHT22;8301;51.440;6.610;2023-03-14T05:48:24;8.40;99.90
16384;DHT22;8301;51.440;6.610;2023-03-14T05:50:54;8.50;99.90
16384;DHT22;8301;51.440;6.610;2023-03-14T05:53:21;8.50;99.90
16384;DHT22;8301;51.440;6.610;2023-03-14T05:55:50;8.50;99.90
16384;DHT22;8301;51.440;6.610;2023-03-14T05:58:16;8.50;99.90
16384;DHT22;8301;51.440;6.610;2023-03-14T06:00:43;8.50;99.90
16384;DHT22;8301;51.440;6.610;2023-03-14T06:03:10;8.60;99.90
16384;DHT22;8301;51.440;6.610;2023-03-14T06:05:37;8.60;99.90
16384;DHT22;8301;51.440;6.610;2023-03-14T06:08:04;8.60;99.90
16384;DHT22;8301;51.440;6.610;2023-03-14T06:10:31;8.60;99.90
16384;DHT22;8301;51.440;6.610;2023-03-14T06:12:57;8.70;99.90
16384;DHT22;8301;51.440;6.610;2023-03-14T06:15:24;8.70;99.90
16384;DHT22;8301;51.440;6.610;2023-03-14T06:17:53;8.70;99.90
16384;DHT22;8301;51.440;6.610;2023-03-14T06:20:20;8.70;99.90
16384;DHT22;8301;51.440;6.610;2023-03-14T06:22:47;8.70;99.90
16384;DHT22;8301;51.440;6.610;2023-03-14T06:25:13;8.80;99.90
16384;DHT22;8301;51.440;6.610;2023-03-14T06:27:40;8.90;99.90
16384;DHT22;8301;51.440;6.610;2023-03-14T06:30:13;8.90;99.90
16384;DHT22;8301;51.440;6.610;2023-03-14T06:32:40;8.90;99.90
16384;DHT22;8301;51.440;6.610;2023-03-14T06:35:07;9.00;99.90
16384;DHT22;8301;51.440;6.610;2023-03-14T06:37:34;9.00;99.90
16384;DHT22;8301;51.440;6.610;2023-03-14T06:40:02;9.00;99.90
16384;DHT22;8301;51.440;6.610;2023-03-14T06:42:28;9.00;99.90
16384;DHT22;8301;51.440;6.610;2023-03-14T06:44:55;9.10;99.90
16384;DHT22;8301;51.440;6.610;2023-03-14T06:47:22;9.10;99.90
16384;DHT22;8301;51.440;6.610;2023-03-14T06:49:49;9.10;99.90
16384;DHT22;8301;51.440;6.610;2023-03-14T06:52:16;9.20;99.90
16384;DHT22;8301;51.440;6.610;2023-03-14T06:54:43;9.20;99.90
16384;DHT22;8301;51.440;6.610;2023-03-14T06:57:11;9.20;99.90
16384;DHT22;8301;51.440;6.610;2023-03-14T06:59:38;9.20;99.90
16384;DHT22;8301;51.440;6.610;2023-03-14T07:02:07;9.20;99.90
16384;DHT22;8301;51.440;6.610;2023-03-14T07:04:33;9.20;99.90
16384;DHT22;8301;51.440;6.610;2023-03-14T07:07:00;9.20;99.90
16384;DHT22;8301;51.440;6.610;2023-03-14T07:11:59;9.30;99.90
16384;DHT22;8301;51.440;6.610;2023-03-14T07:14:26;9.20;99.90
16384;DHT22;8301;51.440;6.610;2023-03-14T07:16:53;9.30;99.90
16384;DHT22;8301;51.440;6.610;2023-03-14T07:19:21;9.30;99.90
16384;DHT22;8301;51.440;6.610;2023-03-14T07:21:48;9.30;99.90
16384;DHT22;8301;51.440;6.610;2023-03-14T07:24:14;9.30;99.90
16384;DHT22;8301;51.440;6.610;2023-03-14T07:26:41;9.30;99.90
16384;DHT22;8301;51.440;6.610;2023-03-14T07:29:08;9.40;99.90
16384;DHT22;8301;51.440;6.610;2023-03-14T07:31:35;9.40;99.90
16384;DHT22;8301;51.440;6.610;2023-03-14T07:34:02;9.40;99.90
16384;DHT22;8301;51.440;6.610;2023-03-14T07:36:29;9.50;99.90
16384;DHT22;8301;51.440;6.610;2023-03-14T07:38:55;9.50;99.90
16384;DHT22;8301;51.440;6.610;2023-03-14T07:41:22;9.60;99.90
16384;DHT22;8301;51.440;6.610;2023-03-14T07:43:49;9.60;99.90
16384;DHT22;8301;51.440;6.610;2023-03-14T07:46:16;9.50;99.90
16384;DHT22;8301;51.440;6.610;2023-03-14T07:48:45;9.60;99.90
16384;DHT22;8301;51.440;6.610;2023-03-14T07:51:16;9.60;99.90
16384;DHT22;8301;51.440;6.610;2023-03-14T07:53:44;9.60;99.90
16384;DHT22;8301;51.440;6.610;2023-03-14T07:56:11;9.60;99.90
16384;DHT22;8301;51.440;6.610;2023-03-14T07:58:38;9.70;99.90
16384;DHT22;8301;51.440;6.610;2023-03-14T08:01:05;9.70;99.90
16384;DHT22;8301;51.440;6.610;2023-03-14T08:03:32;9.80;99.90
16384;DHT22;8301;51.440;6.610;2023-03-14T08:05:59;9.80;99.90
16384;DHT22;8301;51.440;6.610;2023-03-14T08:08:25;9.80;99.90
16384;DHT22;8301;51.440;6.610;2023-03-14T08:11:05;9.80;99.90
16384;DHT22;8301;51.440;6.610;2023-03-14T08:13:36;9.90;99.90
16384;DHT22;8301;51.440;6.610;2023-03-14T08:16:03;10.00;99.90
16384;DHT22;8301;51.440;6.610;2023-03-14T08:18:30;10.00;99.90
16384;DHT22;8301;51.440;6.610;2023-03-14T08:21:09;10.10;99.90
16384;DHT22;8301;51.440;6.610;2023-03-14T08:26:09;10.10;99.90
16384;DHT22;8301;51.440;6.610;2023-03-14T08:28:36;10.00;99.90
16384;DHT22;8301;51.440;6.610;2023-03-14T08:31:04;10.10;99.90
16384;DHT22;8301;51.440;6.610;2023-03-14T08:33:30;10.10;99.90
16384;DHT22;8301;51.440;6.610;2023-03-14T08:35:58;10.10;99.90
16384;DHT22;8301;51.440;6.610;2023-03-14T08:38:29;10.00;99.90
16384;DHT22;8301;51.440;6.610;2023-03-14T08:40:56;10.00;99.90
16384;DHT22;8301;51.440;6.610;2023-03-14T08:43:30;9.90;99.90
16384;DHT22;8301;51.440;6.610;2023-03-14T08:45:57;9.90;99.90
16384;DHT22;8301;51.440;6.610;2023-03-14T08:48:24;9.80;99.90
16384;DHT22;8301;51.440;6.610;2023-03-14T08:50:51;9.80;99.90
16384;DHT22;8301;51.440;6.610;2023-03-14T08:53:18;9.80;99.90
16384;DHT22;8301;51.440;6.610;2023-03-14T08:55:57;9.80;99.90
16384;DHT22;8301;51.440;6.610;2023-03-14T08:58:16;9.80;99.90
16384;DHT22;8301;51.440;6.610;2023-03-14T09:00:43;9.70;99.90
16384;DHT22;8301;51.440;6.610;2023-03-14T09:03:10;8.50;99.90
16384;DHT22;8301;51.440;6.610;2023-03-14T09:05:39;8.10;99.90
16384;DHT22;8301;51.440;6.610;2023-03-14T09:08:06;7.90;99.90
16384;DHT22;8301;51.440;6.610;2023-03-14T09:10:33;7.80;99.90
16384;DHT22;8301;51.440;6.610;2023-03-14T09:13:01;7.80;99.90
16384;DHT22;8301;51.440;6.610;2023-03-14T09:15:34;7.80;99.90
16384;DHT22;8301;51.440;6.610;2023-03-14T09:18:01;7.80;99.90
16384;DHT22;8301;51.440;6.610;2023-03-14T09:20:34;7.80;99.90
16384;DHT22;8301;51.440;6.610;2023-03-14T09:23:04;7.80;99.90
16384;DHT22;8301;51.440;6.610;2023-03-14T09:25:31;7.80;99.90
16384;DHT22;8301;51.440;6.610;2023-03-14T09:27:58;7.70;99.90
16384;DHT22;8301;51.440;6.610;2023-03-14T09:30:26;7.70;99.90
16384;DHT22;8301;51.440;6.610;2023-03-14T09:32:53;7.70;99.90
16384;DHT22;8301;51.440;6.610;2023-03-14T09:35:21;7.70;99.90
16384;DHT22;8301;51.440;6.610;2023-03-14T09:37:48;7.80;99.90
16384;DHT22;8301;51.440;6.610;2023-03-14T09:40:16;7.80;99.90
16384;DHT22;8301;51.440;6.610;2023-03-14T09:42:50;7.80;99.90
16384;DHT22;8301;51.440;6.610;2023-03-14T09:45:19;7.80;99.90
16384;DHT22;8301;51.440;6.610;2023-03-14T09:47:45;7.80;99.90
16384;DHT22;8301;51.440;6.610;2023-03-14T09:50:16;7.80;99.90
16384;DHT22;8301;51.440;6.610;2023-03-14T09:52:46;7.80;99.90
16384;DHT22;8301;51.440;6.610;2023-03-14T09:55:11;7.80;99.90
16384;DHT22;8301;51.440;6.610;2023-03-14T09:57:38;7.80;99.90
16384;DHT22;8301;51.440;6.610;2023-03-14T10:00:49;7.80;99.90
16384;DHT22;8301;51.440;6.610;2023-03-14T10:02:40;7.70;99.90
16384;DHT22;8301;51.440;6.610;2023-03-14T10:05:13;7.80;99.90
16384;DHT22;8301;51.440;6.610;2023-03-14T10:07:37;7.70;99.90
16384;DHT22;8301;51.440;6.610;2023-03-14T10:10:09;7.60;99.90
16384;DHT22;8301;51.440;6.610;2023-03-14T10:12:36;7.40;99.90
16384;DHT22;8301;51.440;6.610;2023-03-14T10:15:15;7.30;99.90
16384;DHT22;8301;51.440;6.610;2023-03-14T10:17:46;7.30;99.90
16384;DHT22;8301;51.440;6.610;2023-03-14T10:22:58;7.30;99.90
16384;DHT22;8301;51.440;6.610;2023-03-14T10:25:26;7.30;99.90
16384;DHT22;8301;51.440;6.610;2023-03-14T10:27:53;7.10;99.90
16384;DHT22;8301;51.440;6.610;2023-03-14T10:31:06;7.00;99.90
16384;DHT22;8301;51.440;6.610;2023-03-14T10:32:48;7.10;99.90
16384;DHT22;8301;51.440;6.610;2023-03-14T10:37:56;7.10;99.90
16384;DHT22;8301;51.440;6.610;2023-03-14T10:40:32;7.10;99.90
16384;DHT22;8301;51.440;6.610;2023-03-14T10:42:54;7.00;99.90
16384;DHT22;8301;51.440;6.610;2023-03-14T10:45:41;6.90;99.90
16384;DHT22;8301;51.440;6.610;2023-03-14T10:51:10;6.70;99.90
16384;DHT22;8301;51.440;6.610;2023-03-14T10:53:43;6.70;99.90
16384;DHT22;8301;51.440;6.610;2023-03-14T10:56:14;6.70;99.90
16384;DHT22;8301;51.440;6.610;2023-03-14T10:58:57;6.70;99.90
16384;DHT22;8301;51.440;6.610;2023-03-14T11:07:03;7.00;99.90
16384;DHT22;8301;51.440;6.610;2023-03-14T11:09:49;7.00;99.90
16384;DHT22;8301;51.440;6.610;2023-03-14T11:14:46;7.00;99.90
16384;DHT22;8301;51.440;6.610;2023-03-14T11:17:22;7.00;99.90
16384;DHT22;8301;51.440;6.610;2023-03-14T11:22:24;7.00;99.90
16384;DHT22;8301;51.440;6.610;2023-03-14T11:25:12;7.10;99.90
16384;DHT22;8301;51.440;6.610;2023-03-14T11:27:48;7.00;99.90
16384;DHT22;8301;51.440;6.610;2023-03-14T11:30:21;7.00;99.90
16384;DHT22;8301;51.440;6.610;2023-03-14T11:38:14;6.80;99.90
16384;DHT22;8301;51.440;6.610;2023-03-14T11:40:40;6.50;99.90
16384;DHT22;8301;51.440;6.610;2023-03-14T11:45:57;6.60;99.90
16384;DHT22;8301;51.440;6.610;2023-03-14T11:51:13;7.30;99.90
16384;DHT22;8301;51.440;6.610;2023-03-14T11:53:45;7.40;99.90
16384;DHT22;8301;51.440;6.610;2023-03-14T11:56:13;7.70;99.90
16384;DHT22;8301;51.440;6.610;2023-03-14T11:58:39;8.10;99.90
16384;DHT22;8301;51.440;6.610;2023-03-14T12:01:08;8.30;99.90
16384;DHT22;8301;51.440;6.610;2023-03-14T12:03:38;8.30;52.30
16384;DHT22;8301;51.440;6.610;2023-03-14T12:08:37;7.90;99.90
16384;DHT22;8301;51.440;6.610;2023-03-14T12:11:02;8.10;28.60
16384;DHT22;8301;51.440;6.610;2023-03-14T12:13:29;8.00;1.00
16384;DHT22;8301;51.440;6.610;2023-03-14T12:15:58;7.80;1.00
16384;DHT22;8301;51.440;6.610;2023-03-14T12:18:36;7.60;1.00
16384;DHT22;8301;51.440;6.610;2023-03-14T12:21:09;7.70;1.00
16384;DHT22;8301;51.440;6.610;2023-03-14T12:26:08;6.80;99.90
16384;DHT22;8301;51.440;6.610;2023-03-14T12:28:35;6.20;99.90
16384;DHT22;8301;51.440;6.610;2023-03-14T12:34:00;6.10;99.90
16384;DHT22;8301;51.440;6.610;2023-03-14T12:36:20;6.00;99.90
16384;DHT22;8301;51.440;6.610;2023-03-14T12:39:10;6.00;99.90
16384;DHT22;8301;51.440;6.610;2023-03-14T12:41:44;6.10;99.90
16384;DHT22;8301;51.440;6.610;2023-03-14T12:49:52;7.10;99.90
16384;DHT22;8301;51.440;6.610;2023-03-14T12:52:22;7.10;99.90
16384;DHT22;8301;51.440;6.610;2023-03-14T12:54:51;7.20;99.90
16384;DHT22;8301;51.440;6.610;2023-03-14T12:57:20;7.10;99.90
16384;DHT22;8301;51.440;6.610;2023-03-14T13:00:00;7.10;1.00
16384;DHT22;8301;51.440;6.610;2023-03-14T13:02:24;7.30;99.90
16384;DHT22;8301;51.440;6.610;2023-03-14T13:10:24;6.90;1.00
16384;DHT22;8301;51.440;6.610;2023-03-14T13:12:56;6.60;1.00
16384;DHT22;8301;51.440;6.610;2023-03-14T13:15:44;6.30;99.90
16384;DHT22;8301;51.440;6.610;2023-03-14T13:17:53;6.20;99.90
16384;DHT22;8301;51.440;6.610;2023-03-14T13:20:41;6.20;99.90
16384;DHT22;8301;51.440;6.610;2023-03-14T13:23:04;6.30;98.90
16384;DHT22;8301;51.440;6.610;2023-03-14T13:25:34;6.50;99.90
16384;DHT22;8301;51.440;6.610;2023-03-14T13:28:02;6.70;99.90
16384;DHT22;8301;51.440;6.610;2023-03-14T13:30:35;6.80;99.90
16384;DHT22;8301;51.440;6.610;2023-03-14T13:32:57;7.00;99.90
16384;DHT22;8301;51.440;6.610;2023-03-14T13:35:27;7.00;1.00
16384;DHT22;8301;51.440;6.610;2023-03-14T13:38:01;7.10;99.90
16384;DHT22;8301;51.440;6.610;2023-03-14T13:40:30;7.50;99.90
16384;DHT22;8301;51.440;6.610;2023-03-14T13:45:45;7.70;99.90
16384;DHT22;8301;51.440;6.610;2023-03-14T13:48:14;8.00;99.90
16384;DHT22;8301;51.440;6.610;2023-03-14T13:50:52;8.10;99.90
16384;DHT22;8301;51.440;6.610;2023-03-14T13:53:22;8.00;89.10
16384;DHT22;8301;51.440;6.610;2023-03-14T13:55:49;8.30;1.00
16384;DHT22;8301;51.440;6.610;2023-03-14T13:58:21;8.00;1.00
16384;DHT22;8301;51.440;6.610;2023-03-14T14:00:56;7.80;1.00
16384;DHT22;8301;51.440;6.610;2023-03-14T14:03:23;7.90;1.00
16384;DHT22;8301;51.440;6.610;2023-03-14T14:05:50;8.20;1.00
16384;DHT22;8301;51.440;6.610;2023-03-14T14:08:17;8.50;1.00
16384;DHT22;8301;51.440;6.610;2023-03-14T14:10:47;8.60;1.00
16384;DHT22;8301;51.440;6.610;2023-03-14T14:13:19;8.70;99.90
16384;DHT22;8301;51.440;6.610;2023-03-14T14:15:49;8.60;99.90
16384;DHT22;8301;51.440;6.610;2023-03-14T14:18:18;8.50;99.90
16384;DHT22;8301;51.440;6.610;2023-03-14T14:20:47;8.60;99.90
16384;DHT22;8301;51.440;6.610;2023-03-14T14:23:18;8.60;99.90
16384;DHT22;8301;51.440;6.610;2023-03-14T14:25:42;8.50;99.90
16384;DHT22;8301;51.440;6.610;2023-03-14T14:28:26;8.40;99.90
16384;DHT22;8301;51.440;6.610;2023-03-14T14:31:00;8.30;99.90
16384;DHT22;8301;51.440;6.610;2023-03-14T14:33:27;8.40;99.90
16384;DHT22;8301;51.440;6.610;2023-03-14T14:35:59;8.40;99.90
16384;DHT22;8301;51.440;6.610;2023-03-14T14:38:22;8.40;99.90
16384;DHT22;8301;51.440;6.610;2023-03-14T14:43:19;8.10;99.90
16384;DHT22;8301;51.440;6.610;2023-03-14T14:45:47;8.10;99.90
16384;DHT22;8301;51.440;6.610;2023-03-14T14:48:14;7.90;97.30
16384;DHT22;8301;51.440;6.610;2023-03-14T14:53:20;7.90;99.90
16384;DHT22;8301;51.440;6.610;2023-03-14T14:55:49;8.00;99.90
16384;DHT22;8301;51.440;6.610;2023-03-14T15:01:22;7.90;90.10
16384;DHT22;8301;51.440;6.610;2023-03-14T15:03:50;7.80;91.20
16384;DHT22;8301;51.440;6.610;2023-03-14T15:06:19;7.80;96.30
16384;DHT22;8301;51.440;6.610;2023-03-14T15:08:47;7.90;86.60
16384;DHT22;8301;51.440;6.610;2023-03-14T15:11:20;7.90;99.90
16384;DHT22;8301;51.440;6.610;2023-03-14T15:13:48;7.90;85.50
16384;DHT22;8301;51.440;6.610;2023-03-14T15:16:16;7.80;79.20
16384;DHT22;8301;51.440;6.610;2023-03-14T15:18:47;7.70;99.90
16384;DHT22;8301;51.440;6.610;2023-03-14T15:21:14;7.70;99.90
16384;DHT22;8301;51.440;6.610;2023-03-14T15:23:40;7.60;99.90
16384;DHT22;8301;51.440;6.610;2023-03-14T15:26:12;7.70;92.50
